Time;durP1;ratioP1;P1;durP2;ratioP2;P2;SDS_P1;SDS_P2;PMS_P1;PMS_P2;Temp;Humidity;BMP_temperature;BMP_pressure;BME280_temperature;BME280_humidity;BME280_pressure;Samples;Min_cycle;Max_cycle;Signal;HPM_P1;HPM_P2
2021/12/29 00:00:29;;;;;;;2.13;1.90;;;;;;;-145.06;0.00;60892.56;4818833;28;20030;-88
2021/12/29 00:03:09;;;;;;;1.98;1.77;;;;;;;-145.06;0.00;60892.56;4805233;28;20062;-87
2021/12/29 00:05:48;;;;;;;2.40;1.67;;;;;;;-145.06;0.00;60892.56;4817688;28;20038;-88
2021/12/29 00:08:27;;;;;;;2.20;1.77;;;;;;;-145.06;0.00;60892.56;4818197;28;20038;-88
2021/12/29 00:11:06;;;;;;;2.43;1.70;;;;;;;9.66;0.00;60892.56;4816759;28;20042;-88
2021/12/29 00:13:45;;;;;;;2.15;1.70;;;;;;;-145.06;0.00;60892.56;4816796;28;20062;-88
2021/12/29 00:16:24;;;;;;;1.60;1.50;;;;;;;-145.06;0.00;60892.56;4815301;28;20035;-87
2021/12/29 00:19:05;;;;;;;1.88;1.67;;;;;;;-145.06;0.00;60892.56;4816196;28;20277;-87
2021/12/29 00:21:44;;;;;;;2.25;1.85;;;;;;;-145.06;0.00;60892.56;4818304;28;20034;-87
2021/12/29 00:24:23;;;;;;;2.47;1.73;;;;;;;-145.06;0.00;60892.56;4800363;28;20030;-88
2021/12/29 00:27:04;;;;;;;2.60;2.00;;;;;;;-145.06;0.00;60892.56;4815068;28;20038;-88
2021/12/29 00:29:43;;;;;;;2.13;1.92;;;;;;;9.68;0.00;60892.56;4818282;28;20348;-88
2021/12/29 00:32:22;;;;;;;1.70;1.53;;;;;;;9.68;0.00;60892.56;4818887;28;20034;-88
2021/12/29 00:35:03;;;;;;;3.70;2.20;;;;;;;9.67;0.00;60892.56;4817983;28;20034;-87
2021/12/29 00:37:42;;;;;;;2.65;2.33;;;;;;;9.67;0.00;60892.56;4815976;28;20042;-88
2021/12/29 00:40:21;;;;;;;2.93;2.07;;;;;;;9.67;0.00;60892.56;4808150;28;20062;-88
2021/12/29 00:43:00;;;;;;;2.00;1.80;;;;;;;-145.06;0.00;60892.56;4815915;28;20058;-86
2021/12/29 00:45:40;;;;;;;2.15;1.67;;;;;;;-145.06;0.00;60892.56;4817082;28;20046;-87
2021/12/29 00:48:20;;;;;;;;;;;;;;;-145.06;0.00;60892.56;4825940;28;20042;-86
2021/12/29 00:50:59;;;;;;;1.42;1.30;;;;;;;-145.06;0.00;60892.56;4804199;28;19917;-88
2021/12/29 00:53:38;;;;;;;2.47;1.77;;;;;;;9.63;0.00;60892.56;4820177;28;20026;-88
2021/12/29 00:56:17;;;;;;;1.73;1.40;;;;;;;9.64;0.00;60892.56;4817510;28;20507;-88
2021/12/29 00:58:56;;;;;;;2.90;2.00;;;;;;;9.62;0.00;60892.56;4817072;28;20042;-87
2021/12/29 01:01:35;;;;;;;2.53;2.25;;;;;;;-145.06;0.00;60892.56;4815088;28;20274;-88
2021/12/29 01:04:14;;;;;;;3.25;2.20;;;;;;;9.62;0.00;60892.56;4806909;28;20039;-88
2021/12/29 01:06:54;;;;;;;1.70;1.60;;;;;;;-145.06;0.00;60892.56;4806235;28;20039;-87
2021/12/29 01:09:33;;;;;;;2.50;2.00;;;;;;;9.62;0.00;60892.56;4803617;28;20039;-87
2021/12/29 01:12:12;;;;;;;2.23;1.70;;;;;;;-145.06;0.00;60892.56;4812439;28;20464;-86
2021/12/29 01:14:54;;;;;;;3.53;2.20;;;;;;;9.62;0.00;60892.56;4815202;28;20026;-88
2021/12/29 01:17:33;;;;;;;2.45;2.13;;;;;;;9.62;0.00;60892.56;4811951;28;20034;-88
2021/12/29 01:20:12;;;;;;;2.83;2.03;;;;;;;-145.06;0.00;60892.56;4816055;28;20126;-87
2021/12/29 01:22:52;;;;;;;3.40;2.10;;;;;;;-145.06;0.00;60892.56;4817913;28;20353;-88
2021/12/29 01:25:31;;;;;;;3.35;2.13;;;;;;;9.62;0.00;60892.56;4818076;28;20273;-88
2021/12/29 01:28:11;;;;;;;2.83;2.38;;;;;;;-145.06;0.00;60892.56;4811858;28;20042;-88
2021/12/29 01:30:50;;;;;;;2.65;2.20;;;;;;;-145.06;0.00;60892.56;4805670;28;20112;-88
2021/12/29 01:33:29;;;;;;;5.47;2.75;;;;;;;-145.06;0.00;60892.56;4812730;28;20027;-87
2021/12/29 01:36:08;;;;;;;3.50;2.67;;;;;;;-145.06;0.00;60892.56;4815998;28;20121;-88
2021/12/29 01:38:47;;;;;;;3.43;2.90;;;;;;;9.62;0.00;60892.56;4821451;28;20385;-87
2021/12/29 01:41:26;;;;;;;4.17;2.83;;;;;;;-145.06;0.00;60892.56;4815219;28;20109;-88
2021/12/29 01:44:05;;;;;;;3.55;2.83;;;;;;;187.52;0.00;60892.56;4815500;28;20282;-88
2021/12/29 01:46:45;;;;;;;4.45;2.95;;;;;;;-145.06;0.00;60892.56;4811045;28;20105;-89
2021/12/29 01:49:24;;;;;;;3.53;3.20;;;;;;;-145.06;0.00;60892.56;4810817;28;20030;-88
2021/12/29 01:52:11;;;;;;;4.80;2.67;;;;;;;-145.06;0.00;60892.56;4818024;28;20472;-88
2021/12/29 01:54:50;;;;;;;3.47;2.83;;;;;;;-145.06;0.00;60892.56;4817603;28;20027;-86
2021/12/29 01:57:30;;;;;;;3.67;3.03;;;;;;;-145.06;0.00;60892.56;4820848;28;20031;-88
2021/12/29 02:00:13;;;;;;;4.30;3.00;;;;;;;-145.06;0.00;60892.56;4819742;28;20034;-88
2021/12/29 02:02:52;;;;;;;5.40;2.80;;;;;;;-145.06;0.00;60892.56;4819460;28;20813;-88
2021/12/29 02:05:31;;;;;;;2.90;2.47;;;;;;;10.68;0.00;60892.56;4813221;28;20110;-88
2021/12/29 02:08:11;;;;;;;2.63;2.30;;;;;;;-145.06;0.00;60892.56;4818484;28;20121;-88
2021/12/29 02:10:52;;;;;;;;;;;;;;;-145.06;0.00;60892.56;4815814;28;20783;-88
2021/12/29 02:13:31;;;;;;;3.58;2.60;;;;;;;-145.06;0.00;60892.56;4823782;28;19910;-88
2021/12/29 02:16:10;;;;;;;4.63;3.03;;;;;;;-145.06;0.00;60892.56;4815651;28;20145;-87
2021/12/29 02:18:58;;;;;;;4.10;2.90;;;;;;;-145.06;0.00;60892.56;4819559;28;20030;-87
2021/12/29 02:21:38;;;;;;;3.47;2.45;;;;;;;-145.06;0.00;60892.56;4814671;28;20262;-89
2021/12/29 02:24:19;;;;;;;5.25;2.53;;;;;;;-145.06;0.00;60892.56;4814722;28;20034;-88
2021/12/29 02:26:59;;;;;;;3.47;2.40;;;;;;;-145.06;0.00;60892.56;4819854;28;20038;-87
2021/12/29 02:29:40;;;;;;;;;;;;;;;-145.06;0.00;60892.56;4824675;28;20042;-88
2021/12/29 02:32:19;;;;;;;3.25;2.30;;;;;;;-145.06;0.00;60892.56;4819534;28;19956;-88
2021/12/29 02:34:58;;;;;;;5.87;2.70;;;;;;;-145.06;0.00;60892.56;4816723;28;20038;-89
2021/12/29 02:37:38;;;;;;;3.38;2.53;;;;;;;-145.06;0.00;60892.56;4826553;28;20023;-87
2021/12/29 02:40:17;;;;;;;2.45;2.08;;;;;;;-145.06;0.00;60892.56;4818240;28;20038;-87
2021/12/29 02:42:56;;;;;;;3.40;2.50;;;;;;;-145.06;0.00;60892.56;4818326;28;20038;-88
2021/12/29 02:45:34;;;;;;;2.55;2.13;;;;;;;-145.06;0.00;60892.56;4816449;28;20026;-88
2021/12/29 02:48:13;;;;;;;2.53;2.20;;;;;;;-145.06;0.00;60892.56;4818302;28;20030;-88
2021/12/29 02:50:55;;;;;;;4.30;2.80;;;;;;;9.57;0.00;60892.56;4819135;28;20030;-88
2021/12/29 02:53:35;;;;;;;3.47;2.40;;;;;;;-145.06;0.00;60892.56;4811605;28;20433;-88
2021/12/29 02:56:14;;;;;;;2.65;2.20;;;;;;;-145.06;0.00;60892.56;4821297;28;20042;-87
2021/12/29 02:58:54;;;;;;;2.55;2.17;;;;;;;-145.06;0.00;60892.56;4816327;28;20026;-89
2021/12/29 03:01:33;;;;;;;2.67;2.22;;;;;;;-145.06;0.00;60892.56;4813245;28;20484;-88
2021/12/29 03:04:12;;;;;;;2.80;2.07;;;;;;;-145.06;0.00;60892.56;4817964;28;20030;-88
2021/12/29 03:06:51;;;;;;;3.70;2.60;;;;;;;9.50;0.00;60892.56;4819250;28;20524;-88
2021/12/29 03:09:30;;;;;;;3.92;2.10;;;;;;;21.08;0.00;60892.56;4811700;28;20030;-88
2021/12/29 03:12:10;;;;;;;2.10;1.85;;;;;;;-145.06;0.00;60892.56;4817762;28;20101;-88
2021/12/29 03:14:54;;;;;;;2.00;1.80;;;;;;;-145.06;0.00;60892.56;4818653;28;20117;-87
2021/12/29 03:17:33;;;;;;;2.35;2.00;;;;;;;-145.06;0.00;60892.56;4817840;28;20034;-88
2021/12/29 03:20:12;;;;;;;3.60;2.08;;;;;;;-145.06;0.00;60892.56;4814501;28;20489;-89
2021/12/29 03:22:54;;;;;;;3.25;2.22;;;;;;;9.53;0.00;60892.56;4817086;28;20034;-89
2021/12/29 03:25:33;;;;;;;2.80;2.00;;;;;;;9.53;0.00;60892.56;4820215;28;20038;-89
2021/12/29 03:28:13;;;;;;;2.50;1.98;;;;;;;-145.06;0.00;60892.56;4816972;28;20038;-88
2021/12/29 03:30:54;;;;;;;3.42;2.08;;;;;;;-145.06;0.00;60892.56;4815725;28;20370;-88
2021/12/29 03:33:34;;;;;;;3.72;2.20;;;;;;;-145.06;0.00;60892.56;4812686;28;20058;-88
2021/12/29 03:36:15;;;;;;;2.25;1.95;;;;;;;-145.06;0.00;60892.56;4806783;28;20074;-87
2021/12/29 03:38:54;;;;;;;2.53;1.85;;;;;;;9.59;0.00;60892.56;4812821;28;20492;-88
2021/12/29 03:41:33;;;;;;;4.10;2.63;;;;;;;9.58;0.00;60892.56;4817132;28;20612;-87
2021/12/29 03:44:12;;;;;;;4.50;2.70;;;;;;;-145.06;0.00;60892.56;4813277;28;20477;-88
2021/12/29 03:46:51;;;;;;;3.37;2.43;;;;;;;-145.06;0.00;60892.56;4855082;28;20038;-88
2021/12/29 03:49:30;;;;;;;2.88;2.47;;;;;;;9.57;0.00;60892.56;4817294;28;20281;-88
2021/12/29 03:52:09;;;;;;;3.92;2.60;;;;;;;-145.06;0.00;60892.56;4817492;28;20041;-88
2021/12/29 03:54:48;;;;;;;3.55;2.50;;;;;;;-145.06;0.00;60892.56;4812763;28;20061;-88
2021/12/29 03:57:27;;;;;;;3.27;2.70;;;;;;;9.53;0.00;60892.56;4810508;28;20034;-88
2021/12/29 04:00:10;;;;;;;4.53;2.87;;;;;;;-145.06;0.00;60892.56;4817432;28;20781;-88
2021/12/29 04:02:49;;;;;;;4.72;2.40;;;;;;;-145.06;0.00;60892.56;4813178;28;20282;-88
2021/12/29 04:05:29;;;;;;;2.55;2.35;;;;;;;-145.06;0.00;60892.56;4817925;28;20038;-88
2021/12/29 04:08:09;;;;;;;4.00;2.38;;;;;;;-145.06;0.00;60892.56;4843868;28;20126;-88
2021/12/29 04:10:48;;;;;;;3.85;2.15;;;;;;;-145.06;0.00;60892.56;4800683;28;20031;-87
2021/12/29 04:13:27;;;;;;;3.17;2.17;;;;;;;-145.06;0.00;60892.56;4815569;28;20030;-88
2021/12/29 04:16:10;;;;;;;2.67;1.97;;;;;;;9.55;0.00;60892.56;4810587;28;20034;-89
2021/12/29 04:19:06;;;;;;;3.58;2.03;;;;;;;-145.06;0.00;60892.56;4818063;28;20026;-88
2021/12/29 04:21:46;;;;;;;2.90;2.25;;;;;;;-145.06;0.00;60892.56;4815839;28;20046;-88
2021/12/29 04:24:25;;;;;;;5.53;2.30;;;;;;;10.03;0.00;60892.56;4817840;28;20428;-88
2021/12/29 04:27:06;;;;;;;3.40;2.45;;;;;;;-145.06;0.00;60892.56;4819090;28;20026;-87
2021/12/29 04:29:44;;;;;;;4.35;2.53;;;;;;;-145.06;0.00;60892.56;4811160;28;20054;-87
2021/12/29 04:32:24;;;;;;;4.20;2.73;;;;;;;9.71;0.00;60892.56;4818868;28;20030;-89
2021/12/29 04:35:03;;;;;;;2.95;2.42;;;;;;;-145.06;0.00;60892.56;4818484;28;20480;-88
2021/12/29 04:37:41;;;;;;;2.40;2.13;;;;;;;-145.06;0.00;60892.56;4837560;28;20117;-88
2021/12/29 04:40:20;;;;;;;3.00;2.47;;;;;;;-145.06;0.00;60892.56;4810964;28;20273;-88
2021/12/29 04:43:01;;;;;;;3.25;2.60;;;;;;;-145.06;0.00;60892.56;4816108;28;20030;-88
2021/12/29 04:45:39;;;;;;;;;;;;;;;-145.06;0.00;60892.56;4817415;28;20121;-88
2021/12/29 04:48:19;;;;;;;4.90;3.17;;;;;;;9.54;0.00;60892.56;4824285;28;19917;-89
2021/12/29 04:51:11;;;;;;;3.88;2.55;;;;;;;-145.06;0.00;60892.56;4815820;28;20045;-88
2021/12/29 04:53:51;;;;;;;3.90;2.92;;;;;;;-145.06;0.00;60892.56;4817147;28;20504;-87
2021/12/29 04:56:30;;;;;;;;;;;;;;;-145.06;0.00;60892.56;4817883;28;20037;-89
2021/12/29 04:59:09;;;;;;;5.17;3.27;;;;;;;9.50;0.00;60892.56;4816439;28;20565;-88
2021/12/29 05:01:48;;;;;;;4.28;2.88;;;;;;;-145.06;0.00;60892.56;4817793;28;20266;-88
2021/12/29 05:04:33;;;;;;;3.72;2.95;;;;;;;9.51;0.00;60892.56;4843714;28;20023;-88
2021/12/29 05:10:11;;;;;;;2.43;2.20;;;;;;;9.49;0.00;60892.56;4812402;28;20389;-88
2021/12/29 05:12:50;;;;;;;3.25;2.38;;;;;;;-145.06;0.00;60892.56;4804003;28;20034;-88
2021/12/29 05:15:30;;;;;;;3.55;2.40;;;;;;;-145.06;0.00;60892.56;4811571;28;20030;-88
2021/12/29 05:18:10;;;;;;;2.60;1.93;;;;;;;-145.06;0.00;60892.56;4816830;28;20034;-87
2021/12/29 05:20:48;;;;;;;;;;;;;;;-145.06;0.00;60892.56;4822665;28;20905;-88
2021/12/29 05:23:27;;;;;;;3.10;1.95;;;;;;;-145.06;0.00;60892.56;4813692;28;19914;-88
2021/12/29 05:26:06;;;;;;;2.73;2.27;;;;;;;-145.06;0.00;60892.56;4807211;28;20492;-87
2021/12/29 05:28:45;;;;;;;2.27;1.90;;;;;;;-145.06;0.00;60892.56;4813590;28;20432;-88
2021/12/29 05:31:25;;;;;;;1.90;1.60;;;;;;;-145.06;0.00;60892.56;4820755;28;20266;-87
2021/12/29 05:34:04;;;;;;;2.03;1.50;;;;;;;-145.06;0.00;60892.56;4820279;28;20616;-88
2021/12/29 05:36:43;;;;;;;1.60;1.50;;;;;;;-145.06;0.00;60892.56;4820956;28;20034;-89
2021/12/29 05:39:22;;;;;;;1.60;1.50;;;;;;;-145.06;0.00;60892.56;4811175;28;20492;-88
2021/12/29 05:42:01;;;;;;;1.40;1.20;;;;;;;9.59;0.00;60892.56;4811731;28;20385;-87
2021/12/29 05:44:39;;;;;;;1.42;1.23;;;;;;;9.63;0.00;60892.56;4816513;28;20620;-87
2021/12/29 05:47:18;;;;;;;2.42;1.45;;;;;;;-145.06;0.00;60892.56;4821156;28;22124;-88
2021/12/29 05:49:57;;;;;;;1.80;1.45;;;;;;;-145.06;0.00;60892.56;4821733;28;20034;-89
2021/12/29 05:52:37;;;;;;;1.27;1.17;;;;;;;-145.06;0.00;60892.56;4821157;28;20058;-89
2021/12/29 05:55:16;;;;;;;2.53;1.27;;;;;;;-145.06;0.00;60892.56;4818172;28;20030;-88
2021/12/29 05:57:56;;;;;;;1.40;1.30;;;;;;;-145.06;0.00;60892.56;4817431;28;20030;-88
2021/12/29 06:00:37;;;;;;;;;;;;;;;-145.06;0.00;60892.56;4814885;28;20031;-89
2021/12/29 06:03:16;;;;;;;1.50;1.27;;;;;;;-145.06;0.00;60892.56;4820550;28;19914;-89
2021/12/29 06:05:55;;;;;;;1.40;1.15;;;;;;;-145.06;0.00;60892.56;4820760;28;20042;-88
2021/12/29 06:08:34;;;;;;;1.40;1.07;;;;;;;-145.06;0.00;60892.56;4816136;28;20038;-87
2021/12/29 06:11:12;;;;;;;1.60;1.17;;;;;;;-145.06;0.00;60892.56;4817775;28;20807;-88
2021/12/29 06:13:52;;;;;;;2.07;1.20;;;;;;;-145.06;0.00;60892.56;4820333;28;20026;-88
2021/12/29 06:16:31;;;;;;;1.30;1.20;;;;;;;-145.06;0.00;60892.56;4815759;28;20038;-88
2021/12/29 06:19:10;;;;;;;1.90;1.20;;;;;;;-145.06;0.00;60892.56;4817791;28;20042;-87
2021/12/29 06:21:49;;;;;;;1.65;1.02;;;;;;;-145.06;0.00;60892.56;4818876;28;20109;-88
2021/12/29 06:24:28;;;;;;;1.50;1.00;;;;;;;-145.06;0.00;60892.56;4819127;28;20030;-87
2021/12/29 06:27:07;;;;;;;1.27;1.00;;;;;;;-145.06;0.00;60892.56;4817170;28;20038;-88
2021/12/29 06:29:47;;;;;;;1.83;1.10;;;;;;;-145.06;0.00;60892.56;4815880;28;20023;-89
2021/12/29 06:32:26;;;;;;;1.42;1.15;;;;;;;-145.06;0.00;60892.56;4820442;28;20361;-88
2021/12/29 06:35:07;;;;;;;2.28;1.50;;;;;;;-145.06;0.00;60892.56;4818285;28;20034;-88
2021/12/29 06:37:46;;;;;;;1.67;1.30;;;;;;;-145.06;0.00;60892.56;4806281;28;20038;-88
2021/12/29 06:40:25;;;;;;;2.30;1.63;;;;;;;-145.06;0.00;60892.56;4808069;28;20492;-88
2021/12/29 06:43:04;;;;;;;2.43;1.43;;;;;;;-145.06;0.00;60892.56;4818517;28;20441;-89
2021/12/29 06:45:43;;;;;;;2.70;1.48;;;;;;;-145.06;0.00;60892.56;4818632;28;21549;-87
2021/12/29 06:48:22;;;;;;;2.38;1.48;;;;;;;-145.06;0.00;60892.56;4808905;28;20114;-86
2021/12/29 06:51:01;;;;;;;2.30;1.57;;;;;;;-145.06;0.00;60892.56;4813063;28;20042;-87
2021/12/29 06:53:40;;;;;;;1.50;1.30;;;;;;;-145.06;0.00;60892.56;4812410;28;20733;-88
2021/12/29 06:56:19;;;;;;;3.28;1.23;;;;;;;-145.06;0.00;60892.56;4816952;28;20278;-88
2021/12/29 06:58:58;;;;;;;1.77;1.20;;;;;;;-145.06;0.00;60892.56;4816464;28;20073;-88
2021/12/29 07:01:37;;;;;;;1.43;1.17;;;;;;;-145.06;0.00;60892.56;4814990;28;20033;-88
2021/12/29 07:04:16;;;;;;;2.50;1.60;;;;;;;-145.06;0.00;60892.56;4804790;28;20034;-87
2021/12/29 07:06:56;;;;;;;1.97;1.30;;;;;;;-145.06;0.00;60892.56;4820060;28;20038;-87
2021/12/29 07:09:35;;;;;;;2.05;1.33;;;;;;;-145.06;0.00;60892.56;4806460;28;20038;-88
2021/12/29 07:12:14;;;;;;;2.70;1.40;;;;;;;-145.06;0.00;60892.56;4817361;28;20038;-89
2021/12/29 07:14:53;;;;;;;1.53;1.30;;;;;;;-145.06;0.00;60892.56;4813052;28;20377;-87
2021/12/29 07:17:32;;;;;;;1.33;1.13;;;;;;;-145.06;0.00;60892.56;4811079;28;20060;-88
2021/12/29 07:20:11;;;;;;;1.83;1.20;;;;;;;-145.06;0.00;60892.56;4815796;28;20285;-89
2021/12/29 07:22:50;;;;;;;5.03;1.60;;;;;;;-145.06;0.00;60892.56;4812853;28;20763;-88
2021/12/29 07:25:29;;;;;;;2.03;1.38;;;;;;;-145.06;0.00;60892.56;4809446;28;20035;-86
2021/12/29 07:28:08;;;;;;;3.50;1.80;;;;;;;-145.06;0.00;60892.56;4807352;28;20039;-87
2021/12/29 07:30:47;;;;;;;2.33;1.67;;;;;;;-145.06;0.00;60892.56;4814043;28;20113;-88
2021/12/29 07:33:26;;;;;;;2.53;2.00;;;;;;;-145.06;0.00;60892.56;4809700;28;20164;-87
2021/12/29 07:36:05;;;;;;;2.10;1.67;;;;;;;-145.06;0.00;60892.56;4815714;28;20042;-88
2021/12/29 07:38:44;;;;;;;1.73;1.17;;;;;;;-145.06;0.00;60892.56;4817180;28;20030;-89
2021/12/29 07:41:23;;;;;;;2.17;1.50;;;;;;;-145.06;0.00;60892.56;4811348;28;20057;-87
2021/12/29 07:44:04;;;;;;;1.45;1.27;;;;;;;-145.06;0.00;60892.56;4809204;28;20034;-88
2021/12/29 07:46:45;;;;;;;2.00;1.33;;;;;;;-145.06;0.00;60892.56;4832336;28;20047;-88
2021/12/29 07:49:24;;;;;;;1.60;0.98;;;;;;;-145.06;0.00;60892.56;4817058;28;20065;-88
2021/12/29 07:52:04;;;;;;;2.63;1.50;;;;;;;-145.06;0.00;60892.56;4806522;28;20030;-88
2021/12/29 07:54:43;;;;;;;1.70;1.33;;;;;;;-145.06;0.00;60892.56;4807072;28;20511;-87
2021/12/29 07:57:22;;;;;;;1.33;1.13;;;;;;;-145.06;0.00;60892.56;4800010;28;20492;-88
2021/12/29 08:00:01;;;;;;;1.63;1.35;;;;;;;-145.06;0.00;60892.56;4808339;28;20285;-86
2021/12/29 08:02:43;;;;;;;1.45;1.27;;;;;;;-145.06;0.00;60892.56;4817021;28;20030;-87
2021/12/29 08:05:23;;;;;;;1.30;1.02;;;;;;;-145.06;0.00;60892.56;4816991;28;20110;-88
2021/12/29 08:08:05;;;;;;;1.70;1.10;;;;;;;-145.06;0.00;60892.56;4813866;28;20488;-88
2021/12/29 08:10:44;;;;;;;1.10;0.88;;;;;;;-145.06;0.00;60892.56;4820541;28;20066;-87
2021/12/29 08:13:23;;;;;;;2.13;1.23;;;;;;;-145.06;0.00;60892.56;4816123;28;20038;-88
2021/12/29 08:16:03;;;;;;;1.10;1.00;;;;;;;-145.06;0.00;60892.56;4810034;28;20042;-88
2021/12/29 08:18:42;;;;;;;1.90;1.45;;;;;;;-145.06;0.00;60892.56;4811867;28;20277;-89
2021/12/29 08:21:21;;;;;;;2.72;1.40;;;;;;;-145.06;0.00;60892.56;4816535;28;20038;-88
2021/12/29 08:24:00;;;;;;;1.60;1.20;;;;;;;-145.06;0.00;60892.56;4814526;28;20034;-87
2021/12/29 08:26:39;;;;;;;2.00;1.30;;;;;;;-145.06;0.00;60892.56;4820119;28;20364;-88
2021/12/29 08:29:17;;;;;;;1.75;1.20;;;;;;;-145.06;0.00;60892.56;4815017;28;20038;-88
2021/12/29 08:31:57;;;;;;;1.80;1.40;;;;;;;-145.06;0.00;60892.56;4816120;28;20377;-87
2021/12/29 08:34:36;;;;;;;1.63;1.23;;;;;;;-145.06;0.00;60892.56;4806286;28;20035;-87
2021/12/29 08:37:15;;;;;;;2.22;1.70;;;;;;;-145.06;0.00;60892.56;4817861;28;20635;-87
2021/12/29 08:39:55;;;;;;;1.40;1.30;;;;;;;-145.06;0.00;60892.56;4816822;28;20042;-87
2021/12/29 08:42:37;;;;;;;2.65;1.45;;;;;;;-145.06;0.00;60892.56;4818018;28;20030;-87
2021/12/29 08:45:17;;;;;;;1.70;1.33;;;;;;;-145.06;0.00;60892.56;4822562;28;20105;-88
2021/12/29 08:47:58;;;;;;;2.65;1.80;;;;;;;-145.06;0.00;60892.56;4817051;28;20393;-88
2021/12/29 08:50:37;;;;;;;1.20;0.95;;;;;;;-145.06;0.00;60892.56;4821680;28;20819;-88
2021/12/29 08:53:17;;;;;;;2.23;1.40;;;;;;;-145.06;0.00;60892.56;4826286;28;20030;-88
2021/12/29 08:55:57;;;;;;;2.63;1.30;;;;;;;-145.06;0.00;60892.56;4816531;28;20109;-88
2021/12/29 08:58:36;;;;;;;2.28;1.45;;;;;;;10.03;0.00;60892.56;4807397;28;20035;-88
2021/12/29 09:01:15;;;;;;;1.90;1.50;;;;;;;-145.06;0.00;60892.56;4807977;28;20718;-88
2021/12/29 09:03:54;;;;;;;2.42;1.40;;;;;;;-145.06;0.00;60892.56;4816177;28;20069;-87
2021/12/29 09:06:34;;;;;;;1.75;1.63;;;;;;;187.52;0.00;60892.56;4818254;28;20038;-88
2021/12/29 09:09:13;;;;;;;1.63;1.40;;;;;;;-145.06;0.00;60892.56;4811746;28;20022;-87
2021/12/29 09:11:53;;;;;;;3.60;1.90;;;;;;;-145.06;0.00;60892.56;4817286;28;20026;-87
2021/12/29 09:14:32;;;;;;;3.97;2.40;;;;;;;-145.06;0.00;60892.56;4813443;28;20293;-89
2021/12/29 09:17:12;;;;;;;2.13;1.67;;;;;;;-145.06;0.00;60892.56;4813236;28;20034;-87
2021/12/29 09:19:51;;;;;;;2.20;1.58;;;;;;;-145.06;0.00;60892.56;4814562;28;20484;-87
2021/12/29 09:22:30;;;;;;;3.00;1.63;;;;;;;-145.06;0.00;60892.56;4816978;28;20038;-87
2021/12/29 09:25:09;;;;;;;3.77;1.87;;;;;;;-145.06;0.00;60892.56;4808870;28;20046;-88
2021/12/29 09:27:50;;;;;;;1.92;1.70;;;;;;;-145.06;0.00;60892.56;4817321;28;20034;-88
2021/12/29 09:30:30;;;;;;;1.83;1.48;;;;;;;-145.06;0.00;60892.56;4815738;28;20540;-88
2021/12/29 09:33:10;;;;;;;2.45;1.40;;;;;;;-145.06;0.00;60892.56;4816602;28;20062;-88
2021/12/29 09:35:52;;;;;;;;;;;;;;;-145.06;0.00;60892.56;4813883;28;20106;-89
2021/12/29 09:38:38;;;;;;;1.83;1.20;;;;;;;-145.06;0.00;60892.56;4816612;28;20312;-88
2021/12/29 09:41:18;;;;;;;1.63;1.27;;;;;;;-145.06;0.00;60892.56;4816707;28;20030;-87
2021/12/29 09:43:57;;;;;;;;;;;;;;;-145.06;0.00;60892.56;4818418;28;20501;-88
2021/12/29 09:46:37;;;;;;;1.30;1.02;;;;;;;-145.06;0.00;60892.56;4814192;28;19960;-87
2021/12/29 09:49:16;;;;;;;;;;;;;;;-145.06;0.00;60892.56;4817458;28;20386;-87
2021/12/29 09:51:55;;;;;;;1.38;1.10;;;;;;;-145.06;0.00;60892.56;4824637;28;19910;-87
2021/12/29 09:54:34;;;;;;;1.67;0.93;;;;;;;-145.06;0.00;60892.56;4805624;28;20026;-88
2021/12/29 09:57:13;;;;;;;1.52;0.90;;;;;;;-145.06;0.00;60892.56;4806367;28;20038;-88
2021/12/29 09:59:52;;;;;;;0.87;0.70;;;;;;;-145.06;0.00;60892.56;4817702;28;20644;-88
2021/12/29 10:02:31;;;;;;;1.30;0.80;;;;;;;-145.06;0.00;60892.56;4805037;28;20031;-87
2021/12/29 10:05:10;;;;;;;1.88;0.95;;;;;;;-145.06;0.00;60892.56;4816476;28;20105;-89
2021/12/29 10:08:17;;;;;;;1.50;0.80;;;;;;;-145.06;0.00;60892.56;4816922;28;20042;-87
2021/12/29 10:11:00;;;;;;;2.40;0.75;;;;;;;-145.06;0.00;60892.56;4798609;28;20031;-87
2021/12/29 10:13:42;;;;;;;0.88;0.70;;;;;;;-145.06;0.00;60892.56;4804002;28;20026;-88
2021/12/29 10:16:25;;;;;;;1.33;0.70;;;;;;;-145.06;0.00;60892.56;4817999;28;20050;-88
2021/12/29 10:19:10;;;;;;;1.88;0.50;;;;;;;-145.06;0.00;60892.56;4819820;28;20432;-87
2021/12/29 10:21:49;;;;;;;2.50;0.52;;;;;;;-145.06;0.00;60892.56;4819664;28;20144;-87
2021/12/29 10:24:28;;;;;;;0.95;0.60;;;;;;;-145.06;0.00;60892.56;4817356;28;20468;-87
2021/12/29 10:27:16;;;;;;;1.70;0.63;;;;;;;-145.06;0.00;60892.56;4824138;28;20452;-87
2021/12/29 10:29:54;;;;;;;1.27;0.55;;;;;;;-145.06;0.00;60892.56;4819706;28;20584;-87
2021/12/29 10:32:33;;;;;;;0.40;0.40;;;;;;;-145.06;0.00;60892.56;4812855;28;20523;-88
2021/12/29 10:35:39;;;;;;;0.70;0.40;;;;;;;-145.06;0.00;60892.56;4817239;28;20344;-88
2021/12/29 10:38:24;;;;;;;0.70;0.45;;;;;;;-145.06;0.00;60892.56;4814503;28;20038;-87
2021/12/29 10:41:04;;;;;;;0.77;0.50;;;;;;;-145.06;0.00;60892.56;4816078;28;20038;-88
2021/12/29 10:43:58;;;;;;;0.80;0.50;;;;;;;10.34;0.00;60892.56;4821207;28;20037;-88
2021/12/29 10:46:37;;;;;;;0.75;0.50;;;;;;;-145.06;0.00;60892.56;4816041;28;20030;-87
2021/12/29 10:49:16;;;;;;;0.77;0.52;;;;;;;-145.06;0.00;60892.56;4815606;28;20409;-89
2021/12/29 10:51:58;;;;;;;0.47;0.47;;;;;;;10.42;0.00;60892.56;4819285;28;20034;-88
2021/12/29 10:54:37;;;;;;;0.50;0.40;;;;;;;-145.06;0.00;60892.56;4814595;28;20027;-87
2021/12/29 10:57:17;;;;;;;0.70;0.50;;;;;;;-145.06;0.00;60892.56;4815337;28;20026;-87
2021/12/29 10:59:58;;;;;;;1.02;0.50;;;;;;;-145.06;0.00;60892.56;4809484;28;20062;-87
2021/12/29 11:02:36;;;;;;;1.52;0.40;;;;;;;10.72;0.00;60892.56;4810494;28;20034;-86
2021/12/29 11:05:15;;;;;;;0.30;0.30;;;;;;;10.77;0.00;60892.56;4810043;28;20038;-88
2021/12/29 11:08:04;;;;;;;0.97;0.40;;;;;;;10.81;0.00;60892.56;4817287;28;20389;-87
2021/12/29 11:10:45;;;;;;;0.30;0.30;;;;;;;-145.06;0.00;60892.56;4799789;28;20031;-88
2021/12/29 11:13:28;;;;;;;0.43;0.32;;;;;;;-145.06;0.00;60892.56;4815166;28;20030;-87
2021/12/29 11:16:09;;;;;;;0.40;0.40;;;;;;;10.97;0.00;60892.56;4818434;28;20054;-87
2021/12/29 11:18:50;;;;;;;0.43;0.25;;;;;;;11.98;0.00;60892.56;4818775;28;20050;-87
2021/12/29 11:21:35;;;;;;;0.52;0.43;;;;;;;-145.06;0.00;60892.56;4809480;28;20066;-88
2021/12/29 11:24:14;;;;;;;0.68;0.40;;;;;;;-145.06;0.00;60892.56;4813387;28;20030;-88
2021/12/29 11:26:53;;;;;;;1.05;0.40;;;;;;;-145.06;0.00;60892.56;4816858;28;20366;-89
2021/12/29 11:29:32;;;;;;;0.60;0.40;;;;;;;187.52;0.00;60892.56;4815718;28;20472;-88
2021/12/29 11:32:12;;;;;;;0.43;0.40;;;;;;;-145.06;0.00;60892.56;4818380;28;20396;-88
2021/12/29 11:35:12;;;;;;;0.68;0.40;;;;;;;-145.06;0.00;60892.56;4818973;28;20041;-89
2021/12/29 11:37:55;;;;;;;0.63;0.43;;;;;;;-145.06;0.00;60892.56;4816037;28;20034;-88
2021/12/29 11:40:39;;;;;;;0.50;0.40;;;;;;;-145.06;0.00;60892.56;4812319;28;20034;-88
2021/12/29 11:43:20;;;;;;;0.55;0.40;;;;;;;-145.06;0.00;60892.56;4814848;28;20034;-88
2021/12/29 11:45:59;;;;;;;0.95;0.50;;;;;;;-145.06;0.00;60892.56;4815193;28;20038;-88
2021/12/29 11:48:38;;;;;;;0.60;0.50;;;;;;;11.36;0.00;60892.56;4805625;28;20030;-87
2021/12/29 11:51:34;;;;;;;0.50;0.40;;;;;;;-145.06;0.00;60892.56;4849295;28;20041;-89
2021/12/29 11:54:21;;;;;;;0.43;0.32;;;;;;;-145.06;0.00;60892.56;4817175;28;20030;-88
2021/12/29 11:57:15;;;;;;;0.50;0.30;;;;;;;-145.06;0.00;60892.56;4818003;28;20030;-89
2021/12/29 12:00:10;;;;;;;0.77;0.50;;;;;;;11.35;0.00;60892.56;4809171;28;20477;-88
2021/12/29 12:02:52;;;;;;;1.65;0.57;;;;;;;11.41;0.00;60892.56;4815389;28;20381;-89
2021/12/29 12:05:38;;;;;;;1.75;0.50;;;;;;;187.52;0.00;60892.56;4817404;28;20026;-88
2021/12/29 12:08:23;;;;;;;0.45;0.45;;;;;;;-145.06;0.00;60892.56;4812814;28;20030;-88
2021/12/29 12:11:02;;;;;;;0.75;0.30;;;;;;;-145.06;0.00;60892.56;4845019;28;20038;-88
2021/12/29 12:13:43;;;;;;;0.30;0.30;;;;;;;-145.06;0.00;60892.56;4816825;28;20038;-88
2021/12/29 12:16:22;;;;;;;1.27;0.52;;;;;;;-145.06;0.00;60892.56;4807600;28;20031;-88
2021/12/29 12:19:01;;;;;;;0.50;0.50;;;;;;;-145.06;0.00;60892.56;4810691;28;20034;-88
2021/12/29 12:21:41;;;;;;;0.40;0.40;;;;;;;-145.06;0.00;60892.56;4817531;28;20365;-89
2021/12/29 12:24:23;;;;;;;;;;;;;;;-145.06;0.00;60892.56;4819120;28;20113;-89
2021/12/29 12:27:05;;;;;;;0.50;0.30;;;;;;;-145.06;0.00;60892.56;4810198;28;19965;-88
2021/12/29 12:29:45;;;;;;;0.22;0.22;;;;;;;-145.06;0.00;60892.56;4822019;28;20030;-88
2021/12/29 12:32:24;;;;;;;0.32;0.30;;;;;;;-145.06;0.00;60892.56;4815933;28;20038;-89
2021/12/29 12:35:07;;;;;;;0.30;0.30;;;;;;;-145.06;0.00;60892.56;4820624;28;20469;-87